Time;durP1;ratioP1;P1;durP2;ratioP2;P2;SDS_P1;SDS_P2;PMS_P1;PMS_P2;Temp;Humidity;BMP_temperature;BMP_pressure;BME280_temperature;BME280_humidity;BME280_pressure;Samples;Min_cycle;Max_cycle;Signal;HPM_P1;HPM_P2
2023/09/05 00:01:52;;;;;;;4.37;3.97;;;16.20;99.90;;;;;;5030235;28;20531;-67
2023/09/05 00:04:19;;;;;;;5.00;3.20;;;16.20;99.90;;;;;;5030610;28;20463;-66
2023/09/05 00:06:46;;;;;;;3.90;3.40;;;16.10;99.90;;;;;;5029985;28;20466;-67
2023/09/05 00:09:13;;;;;;;4.27;3.67;;;16.10;99.90;;;;;;5030744;28;20918;-66
2023/09/05 00:11:40;;;;;;;4.43;3.30;;;16.00;99.90;;;;;;5030430;28;20457;-67
2023/09/05 00:14:10;;;;;;;3.70;3.40;;;15.90;99.90;;;;;;5030611;28;20464;-67
2023/09/05 00:16:37;;;;;;;4.10;3.70;;;15.90;99.90;;;;;;5030439;28;20935;-66
2023/09/05 00:19:04;;;;;;;3.30;3.00;;;15.80;99.90;;;;;;5030189;28;20487;-67
2023/09/05 00:21:31;;;;;;;4.83;4.03;;;15.80;99.90;;;;;;5030490;28;20488;-67
2023/09/05 00:24:23;;;;;;;6.30;3.40;;;15.80;99.90;;;;;;5033577;28;20465;-67
2023/09/05 00:26:50;;;;;;;3.67;3.37;;;15.80;99.90;;;;;;5049606;28;20463;-67
2023/09/05 00:29:19;;;;;;;4.47;3.20;;;15.80;99.90;;;;;;5050332;28;20533;-67
2023/09/05 00:31:46;;;;;;;3.27;2.93;;;15.80;99.90;;;;;;5050090;28;20458;-66
2023/09/05 00:34:13;;;;;;;2.73;2.50;;;15.80;99.90;;;;;;5050153;28;20513;-66
2023/09/05 00:36:40;;;;;;;4.00;2.80;;;15.80;99.90;;;;;;5049648;28;20451;-66
2023/09/05 00:39:07;;;;;;;3.27;2.97;;;15.90;99.90;;;;;;5050229;28;20476;-66
2023/09/05 00:41:34;;;;;;;2.97;2.40;;;16.00;99.90;;;;;;5049836;28;20492;-66
2023/09/05 00:44:01;;;;;;;3.30;3.00;;;16.00;99.90;;;;;;5049944;28;20468;-67
2023/09/05 00:46:29;;;;;;;3.50;3.20;;;16.00;99.90;;;;;;5050216;28;20461;-66
2023/09/05 00:48:57;;;;;;;3.10;2.90;;;16.00;99.90;;;;;;5049117;28;20456;-66
2023/09/05 00:51:25;;;;;;;3.10;2.60;;;16.00;99.90;;;;;;5050252;28;20460;-66
2023/09/05 00:53:51;;;;;;;3.30;3.00;;;16.00;99.90;;;;;;5053840;28;20463;-67
2023/09/05 00:56:18;;;;;;;2.80;2.40;;;16.00;99.90;;;;;;5054245;28;20893;-67
2023/09/05 00:58:45;;;;;;;3.80;2.90;;;16.00;99.90;;;;;;5053122;28;20459;-66
2023/09/05 01:01:12;;;;;;;3.13;2.83;;;16.00;99.90;;;;;;5054049;28;20547;-67
2023/09/05 01:03:40;;;;;;;3.13;2.80;;;15.90;99.90;;;;;;5053602;28;20492;-67
2023/09/05 01:06:14;;;;;;;3.53;3.23;;;15.90;99.90;;;;;;5053853;28;20471;-66
2023/09/05 01:08:48;;;;;;;3.70;2.77;;;15.80;99.90;;;;;;5053263;28;20460;-67
2023/09/05 01:11:15;;;;;;;4.33;3.13;;;15.70;99.90;;;;;;5053838;28;20451;-67
2023/09/05 01:13:42;;;;;;;3.10;2.80;;;15.60;99.90;;;;;;5053562;28;20456;-66
2023/09/05 01:16:09;;;;;;;3.30;3.00;;;15.60;99.90;;;;;;5053651;28;20886;-67
2023/09/05 01:18:40;;;;;;;4.20;2.97;;;15.50;99.90;;;;;;5053025;28;20509;-66
2023/09/05 01:21:17;;;;;;;3.10;2.80;;;15.50;99.90;;;;;;5053626;28;20479;-67
2023/09/05 01:23:46;;;;;;;3.00;2.70;;;15.40;99.90;;;;;;5053373;28;20483;-66
2023/09/05 01:26:14;;;;;;;3.20;2.53;;;15.40;99.90;;;;;;5053663;28;20488;-67
2023/09/05 01:28:44;;;;;;;3.00;2.53;;;15.30;99.90;;;;;;5052703;28;20478;-66
2023/09/05 01:31:11;;;;;;;3.50;3.20;;;15.20;99.90;;;;;;5053439;28;20460;-66
2023/09/05 01:33:39;;;;;;;3.27;2.73;;;15.20;99.90;;;;;;5053260;28;20456;-66
2023/09/05 01:36:06;;;;;;;3.37;3.07;;;15.20;99.90;;;;;;5053359;28;20463;-67
2023/09/05 01:38:33;;;;;;;3.50;3.20;;;15.20;99.90;;;;;;5052820;28;20467;-66
2023/09/05 01:41:00;;;;;;;3.03;2.73;;;15.10;99.90;;;;;;5052873;28;20479;-67
2023/09/05 01:43:28;;;;;;;7.20;3.23;;;15.10;99.90;;;;;;5053146;28;20480;-67
2023/09/05 01:45:55;;;;;;;3.30;2.90;;;15.00;99.90;;;;;;5052895;28;20947;-66
2023/09/05 01:48:22;;;;;;;2.73;2.37;;;15.00;99.90;;;;;;5052637;28;20487;-66
2023/09/05 01:50:49;;;;;;;3.77;2.80;;;15.00;99.90;;;;;;5052965;28;20488;-67
2023/09/05 01:53:16;;;;;;;3.80;2.67;;;14.90;99.90;;;;;;5053065;28;20910;-67
2023/09/05 01:55:43;;;;;;;3.00;2.50;;;14.90;99.90;;;;;;5052954;28;20518;-67
2023/09/05 01:58:09;;;;;;;3.07;2.87;;;14.80;99.90;;;;;;5052424;28;20467;-67
2023/09/05 02:00:37;;;;;;;3.00;2.53;;;14.80;99.90;;;;;;5053015;28;20479;-67
2023/09/05 02:03:05;;;;;;;2.60;2.40;;;14.80;99.90;;;;;;5024265;28;20476;-66
2023/09/05 02:05:31;;;;;;;2.43;2.23;;;14.70;99.90;;;;;;5033052;28;20460;-66
2023/09/05 02:07:58;;;;;;;3.33;3.03;;;14.70;99.90;;;;;;5032200;28;20526;-67
2023/09/05 02:10:25;;;;;;;5.80;2.90;;;14.70;99.90;;;;;;5032718;28;20563;-66
2023/09/05 02:12:51;;;;;;;2.90;2.50;;;14.80;99.90;;;;;;5032459;28;20948;-67
2023/09/05 02:15:18;;;;;;;2.50;2.30;;;14.70;99.90;;;;;;5032964;28;20831;-67
2023/09/05 02:17:46;;;;;;;2.60;2.40;;;14.60;99.90;;;;;;5032200;28;20464;-66
2023/09/05 02:20:13;;;;;;;4.07;2.80;;;14.60;99.90;;;;;;5032486;28;20469;-66
2023/09/05 02:22:41;;;;;;;4.43;2.83;;;14.60;99.90;;;;;;5032409;28;20488;-66
2023/09/05 02:25:09;;;;;;;2.80;2.50;;;14.50;99.90;;;;;;5032444;28;20465;-66
2023/09/05 02:27:35;;;;;;;2.40;2.20;;;14.50;99.90;;;;;;5032100;28;20479;-66
2023/09/05 02:30:04;;;;;;;4.10;2.60;;;14.40;99.90;;;;;;5032114;28;20487;-66
2023/09/05 02:32:31;;;;;;;2.40;1.80;;;14.30;99.90;;;;;;5032682;28;20879;-66
2023/09/05 02:34:59;;;;;;;3.30;2.63;;;14.30;99.90;;;;;;5032162;28;20452;-67
2023/09/05 02:37:26;;;;;;;2.80;2.40;;;14.30;99.90;;;;;;5031954;28;20464;-66
2023/09/05 02:39:53;;;;;;;2.83;2.50;;;14.30;99.90;;;;;;5032205;28;20568;-67
2023/09/05 02:42:19;;;;;;;3.53;2.80;;;14.30;99.90;;;;;;5032125;28;20857;-66
2023/09/05 02:44:46;;;;;;;2.50;2.30;;;14.30;99.90;;;;;;5032070;28;20479;-66
2023/09/05 02:47:13;;;;;;;2.27;2.07;;;14.20;99.90;;;;;;5031664;28;20461;-66
2023/09/05 02:49:39;;;;;;;2.77;2.47;;;14.20;99.90;;;;;;5031942;28;20480;-66
2023/09/05 02:52:07;;;;;;;5.50;2.50;;;14.20;99.90;;;;;;5032181;28;20464;-66
2023/09/05 02:54:34;;;;;;;4.33;2.57;;;14.20;99.90;;;;;;5032061;28;20456;-66
2023/09/05 02:57:01;;;;;;;3.10;2.70;;;14.10;99.90;;;;;;5031200;28;20457;-66
2023/09/05 02:59:27;;;;;;;2.80;2.40;;;14.10;99.90;;;;;;5031843;28;20477;-66
2023/09/05 03:01:54;;;;;;;2.50;2.30;;;14.10;99.90;;;;;;5031677;28;20944;-66
2023/09/05 03:04:21;;;;;;;2.60;2.40;;;14.10;99.90;;;;;;5031546;28;20871;-66
2023/09/05 03:06:47;;;;;;;2.23;2.03;;;14.10;99.90;;;;;;5031247;28;20456;-66
2023/09/05 03:09:15;;;;;;;2.70;2.30;;;14.10;99.90;;;;;;5031674;28;20516;-66
2023/09/05 03:11:42;;;;;;;2.63;2.43;;;14.10;99.90;;;;;;5031572;28;20460;-66
2023/09/05 03:14:09;;;;;;;2.93;2.47;;;14.10;99.90;;;;;;5030747;28;20948;-66
2023/09/05 03:16:35;;;;;;;2.13;1.93;;;14.10;99.90;;;;;;5031321;28;20830;-66
2023/09/05 03:19:02;;;;;;;2.27;2.00;;;14.00;99.90;;;;;;5030862;28;20461;-66
2023/09/05 03:21:29;;;;;;;3.40;2.40;;;14.00;99.90;;;;;;5031190;28;20461;-66
2023/09/05 03:23:56;;;;;;;2.60;2.00;;;14.00;99.90;;;;;;5041357;28;20476;-67
2023/09/05 03:26:24;;;;;;;2.43;2.13;;;14.00;99.90;;;;;;5036877;28;20475;-67
2023/09/05 03:28:51;;;;;;;2.67;2.47;;;13.90;99.90;;;;;;5030414;28;20456;-66
2023/09/05 03:31:17;;;;;;;2.73;2.50;;;13.90;99.90;;;;;;5030591;28;20469;-67
2023/09/05 03:33:44;;;;;;;2.83;2.50;;;13.90;99.90;;;;;;5038681;28;20460;-67
2023/09/05 03:36:11;;;;;;;3.03;2.63;;;13.90;99.90;;;;;;5051183;28;20462;-67
2023/09/05 03:38:38;;;;;;;3.30;2.20;;;13.90;99.90;;;;;;5034943;28;20487;-66
2023/09/05 03:41:05;;;;;;;4.73;2.77;;;13.80;99.90;;;;;;5039336;28;20480;-67
2023/09/05 03:43:33;;;;;;;2.77;2.20;;;13.90;99.90;;;;;;5031300;28;20914;-67
2023/09/05 03:46:00;;;;;;;2.30;2.10;;;13.80;99.90;;;;;;5050056;28;20459;-66
2023/09/05 03:48:27;;;;;;;3.30;3.00;;;13.80;99.90;;;;;;5050330;28;20497;-67
2023/09/05 03:50:53;;;;;;;3.83;2.90;;;13.80;99.90;;;;;;5050436;28;20994;-67
2023/09/05 03:53:21;;;;;;;4.17;2.50;;;13.70;99.90;;;;;;5050713;28;20454;-67
2023/09/05 03:55:47;;;;;;;2.77;2.30;;;13.70;99.90;;;;;;5050476;28;20612;-67
2023/09/05 03:58:14;;;;;;;3.57;2.90;;;13.70;99.90;;;;;;5050311;28;20876;-66
2023/09/05 04:00:42;;;;;;;3.13;2.50;;;13.70;99.90;;;;;;5050903;28;20482;-66
2023/09/05 04:03:10;;;;;;;2.70;2.50;;;13.70;99.90;;;;;;5050470;28;20478;-67
2023/09/05 04:05:40;;;;;;;3.07;2.67;;;13.60;99.90;;;;;;5050843;28;20471;-67
2023/09/05 04:08:08;;;;;;;2.67;2.20;;;13.60;99.90;;;;;;5050016;28;20465;-66
2023/09/05 04:10:35;;;;;;;3.37;2.80;;;13.60;99.90;;;;;;5050834;28;20482;-67
2023/09/05 04:13:02;;;;;;;2.70;2.50;;;13.60;99.90;;;;;;5048259;28;20483;-66
2023/09/05 04:15:28;;;;;;;2.73;2.27;;;13.50;99.90;;;;;;5030673;28;20951;-67
2023/09/05 04:17:56;;;;;;;2.93;2.63;;;13.50;99.90;;;;;;5030033;28;20461;-66
2023/09/05 04:20:23;;;;;;;2.50;2.30;;;13.50;99.90;;;;;;5030389;28;20475;-67
2023/09/05 04:22:50;;;;;;;3.90;3.20;;;13.50;99.90;;;;;;5030472;28;20519;-67
2023/09/05 04:25:16;;;;;;;4.30;2.90;;;13.50;99.90;;;;;;5030154;28;20463;-66
2023/09/05 04:27:43;;;;;;;3.10;2.80;;;13.50;99.90;;;;;;5029469;28;20871;-68
2023/09/05 04:30:12;;;;;;;3.10;2.80;;;13.50;99.90;;;;;;5030280;28;20221;-67
2023/09/05 04:32:42;;;;;;;3.17;2.30;;;13.50;99.90;;;;;;5030484;28;20510;-67
2023/09/05 04:35:11;;;;;;;3.17;2.60;;;13.50;99.90;;;;;;5030225;28;20955;-67
2023/09/05 04:37:37;;;;;;;2.87;2.40;;;13.40;99.90;;;;;;5029866;28;20452;-67
2023/09/05 04:40:05;;;;;;;4.47;2.63;;;13.50;99.90;;;;;;5029805;28;20480;-67
2023/09/05 04:42:31;;;;;;;5.40;2.50;;;13.40;99.90;;;;;;5030293;28;20472;-67
2023/09/05 04:44:58;;;;;;;2.93;2.53;;;13.40;99.90;;;;;;5030174;28;20457;-67
2023/09/05 04:47:26;;;;;;;2.23;2.03;;;13.40;99.90;;;;;;5029477;28;20468;-67
2023/09/05 04:49:54;;;;;;;3.33;2.93;;;13.40;99.90;;;;;;5029927;28;20480;-67
2023/09/05 04:52:24;;;;;;;3.07;2.53;;;13.40;99.90;;;;;;5030091;28;20836;-67
2023/09/05 04:54:50;;;;;;;2.60;2.30;;;13.40;99.90;;;;;;5030016;28;20451;-67
2023/09/05 04:57:17;;;;;;;2.43;2.23;;;13.40;99.90;;;;;;5029557;28;20460;-67
2023/09/05 04:59:47;;;;;;;3.87;2.67;;;13.50;99.90;;;;;;5030088;28;20487;-68
2023/09/05 05:02:14;;;;;;;2.63;2.43;;;13.50;99.90;;;;;;5030041;28;20453;-68
2023/09/05 05:04:41;;;;;;;3.13;2.70;;;13.50;99.90;;;;;;5100461;22;21015;-65
2023/09/05 05:07:08;;;;;;;4.07;2.63;;;13.40;99.90;;;;;;5031542;28;20508;-66
2023/09/05 05:09:36;;;;;;;2.93;2.50;;;13.50;99.90;;;;;;5029883;28;20477;-66
2023/09/05 05:12:03;;;;;;;3.17;2.30;;;13.50;99.90;;;;;;5032067;28;20460;-66
2023/09/05 05:14:29;;;;;;;3.13;2.83;;;13.50;99.90;;;;;;5049681;28;20451;-66
2023/09/05 05:16:56;;;;;;;3.10;2.90;;;13.50;99.90;;;;;;5049216;28;20981;-66
2023/09/05 05:19:23;;;;;;;4.23;3.00;;;13.60;99.90;;;;;;5049672;28;20475;-66
2023/09/05 05:21:50;;;;;;;5.20;3.30;;;13.60;99.90;;;;;;5049386;28;20451;-66
2023/09/05 05:24:17;;;;;;;3.20;2.60;;;13.60;99.90;;;;;;5049642;28;20846;-66
2023/09/05 05:26:45;;;;;;;4.20;3.00;;;13.70;99.90;;;;;;5049413;28;20943;-66
2023/09/05 05:29:12;;;;;;;2.90;2.60;;;13.70;99.90;;;;;;5021792;28;20476;-65
2023/09/05 05:31:40;;;;;;;4.00;2.47;;;13.80;99.90;;;;;;5030151;28;20464;-66
2023/09/05 05:34:06;;;;;;;3.67;2.57;;;13.90;99.90;;;;;;5029846;28;20461;-66
2023/09/05 05:36:33;;;;;;;3.73;2.70;;;14.10;99.90;;;;;;5030200;28;20456;-66
2023/09/05 05:39:01;;;;;;;3.70;2.60;;;14.20;99.90;;;;;;5031736;28;20461;-66
2023/09/05 05:41:28;;;;;;;4.67;2.93;;;14.30;99.90;;;;;;5033889;28;20456;-66
2023/09/05 05:43:56;;;;;;;2.90;2.30;;;14.40;99.90;;;;;;5033633;28;20601;-66
2023/09/05 05:46:23;;;;;;;2.97;2.67;;;14.50;99.90;;;;;;5033688;28;20880;-66
2023/09/05 05:48:50;;;;;;;3.60;2.40;;;14.60;99.90;;;;;;5032641;28;20464;-66
2023/09/05 05:51:17;;;;;;;4.90;2.80;;;14.80;99.90;;;;;;5031648;28;20482;-66
2023/09/05 05:53:45;;;;;;;2.70;2.43;;;14.90;99.90;;;;;;5038705;28;20465;-65
2023/09/05 05:56:11;;;;;;;3.47;3.17;;;14.90;99.90;;;;;;5032350;28;20845;-66
2023/09/05 05:58:39;;;;;;;2.77;2.43;;;15.00;99.90;;;;;;5031545;28;20475;-66
2023/09/05 06:01:10;;;;;;;2.67;2.20;;;15.00;99.90;;;;;;5033646;28;20559;-66
2023/09/05 06:03:36;;;;;;;2.53;2.20;;;15.10;99.90;;;;;;5033044;28;20575;-66
2023/09/05 06:06:04;;;;;;;3.50;3.00;;;15.20;99.90;;;;;;5033238;28;20496;-66
2023/09/05 06:08:31;;;;;;;2.10;1.90;;;15.20;99.90;;;;;;5032697;28;20547;-66
2023/09/05 06:10:58;;;;;;;3.10;2.37;;;15.30;99.90;;;;;;5032992;28;20503;-67
2023/09/05 06:13:24;;;;;;;2.80;2.30;;;15.30;99.90;;;;;;5033373;28;20452;-66
2023/09/05 06:15:51;;;;;;;3.00;2.50;;;15.40;99.90;;;;;;5033213;28;20464;-66
2023/09/05 06:18:20;;;;;;;3.17;2.87;;;15.50;99.90;;;;;;5032773;28;20468;-66
2023/09/05 06:20:46;;;;;;;2.30;2.10;;;15.60;99.90;;;;;;5041255;28;20482;-66
2023/09/05 06:23:13;;;;;;;2.60;2.40;;;15.70;99.90;;;;;;5052794;28;20460;-66
2023/09/05 06:25:40;;;;;;;4.00;2.63;;;15.80;99.90;;;;;;5053209;28;20467;-66
2023/09/05 06:28:07;;;;;;;4.50;2.83;;;15.90;99.90;;;;;;5033388;28;20452;-66
2023/09/05 06:30:33;;;;;;;2.57;2.37;;;16.00;99.90;;;;;;5032919;28;20479;-66
2023/09/05 06:33:00;;;;;;;3.43;2.40;;;16.10;99.90;;;;;;5032570;28;20464;-66
2023/09/05 06:35:28;;;;;;;3.00;2.10;;;16.20;99.90;;;;;;5038294;28;20455;-67
2023/09/05 06:37:55;;;;;;;2.90;2.50;;;16.40;99.90;;;;;;5051978;28;20456;-66
2023/09/05 06:40:23;;;;;;;3.17;2.70;;;16.50;99.90;;;;;;5052492;28;20480;-66
2023/09/05 06:42:51;;;;;;;2.73;2.47;;;16.50;99.90;;;;;;5052166;28;20456;-65
2023/09/05 06:45:19;;;;;;;3.47;2.63;;;16.60;99.90;;;;;;5052425;28;20477;-66
2023/09/05 06:47:46;;;;;;;2.57;2.10;;;16.70;99.90;;;;;;5051768;28;20969;-67
2023/09/05 06:50:12;;;;;;;2.50;2.30;;;16.80;99.90;;;;;;5048901;28;20478;-67
2023/09/05 06:52:40;;;;;;;2.80;2.30;;;16.90;99.90;;;;;;5032463;28;20453;-66
2023/09/05 06:55:08;;;;;;;3.00;1.93;;;17.00;99.90;;;;;;5032309;28;20850;-66
2023/09/05 06:57:34;;;;;;;2.93;2.30;;;17.10;99.90;;;;;;5031977;28;20834;-66
2023/09/05 07:00:01;;;;;;;2.20;1.93;;;17.20;99.90;;;;;;5031552;28;20474;-66
2023/09/05 07:02:28;;;;;;;3.30;2.00;;;17.30;99.90;;;;;;5031959;28;20469;-66
2023/09/05 07:04:55;;;;;;;1.80;1.63;;;17.40;99.90;;;;;;5031936;28;20492;-65
2023/09/05 07:07:21;;;;;;;3.27;2.60;;;17.50;99.90;;;;;;5047541;28;20465;-66
2023/09/05 07:09:50;;;;;;;2.43;2.23;;;17.60;99.90;;;;;;5048006;28;20854;-66
2023/09/05 07:12:17;;;;;;;3.20;2.43;;;17.70;99.90;;;;;;5040380;28;20890;-66
2023/09/05 07:14:44;;;;;;;2.63;2.40;;;17.70;99.90;;;;;;5047560;28;20464;-66
2023/09/05 07:17:10;;;;;;;2.23;2.03;;;17.80;99.90;;;;;;5032442;28;20465;-66
2023/09/05 07:19:37;;;;;;;2.60;2.23;;;18.00;99.90;;;;;;5038419;28;20475;-67
2023/09/05 07:22:04;;;;;;;2.67;2.47;;;18.10;99.90;;;;;;5033631;28;20491;-66
2023/09/05 07:24:31;;;;;;;2.53;2.33;;;18.20;99.90;;;;;;5031914;28;20486;-66
2023/09/05 07:26:59;;;;;;;3.07;2.53;;;18.30;99.90;;;;;;5034512;28;20963;-65
2023/09/05 07:29:27;;;;;;;2.20;2.00;;;18.40;99.90;;;;;;5030416;28;20483;-67
2023/09/05 07:31:54;;;;;;;2.30;2.10;;;18.50;99.90;;;;;;5050544;28;20508;-66
2023/09/05 07:34:21;;;;;;;2.70;2.30;;;18.60;99.90;;;;;;5038557;28;20455;-66
2023/09/05 07:36:48;;;;;;;2.17;1.97;;;18.70;99.90;;;;;;5030450;28;20474;-66
2023/09/05 07:39:15;;;;;;;2.67;2.43;;;18.80;99.90;;;;;;5030671;28;20563;-66
2023/09/05 07:41:42;;;;;;;2.53;2.33;;;18.80;99.90;;;;;;5049905;28;20554;-66
2023/09/05 07:44:10;;;;;;;3.00;2.23;;;18.90;99.90;;;;;;5046335;28;20488;-67
2023/09/05 07:46:37;;;;;;;2.27;2.07;;;19.00;99.90;;;;;;5050094;28;20469;-66
2023/09/05 07:49:05;;;;;;;3.30;2.13;;;19.10;99.90;;;;;;5050000;28;20459;-66
2023/09/05 07:51:32;;;;;;;2.30;2.10;;;19.30;99.90;;;;;;5032821;28;20465;-66
2023/09/05 07:54:06;;;;;;;2.47;2.27;;;19.30;99.90;;;;;;5029942;28;20506;-66
2023/09/05 07:56:34;;;;;;;2.30;2.10;;;19.50;99.90;;;;;;5030645;28;20454;-67
2023/09/05 07:59:02;;;;;;;3.37;2.47;;;19.60;99.90;;;;;;5029906;28;20559;-66
2023/09/05 08:01:31;;;;;;;2.37;1.90;;;19.80;99.90;;;;;;5030025;28;20464;-66
2023/09/05 08:03:58;;;;;;;2.57;2.30;;;19.90;99.90;;;;;;5029861;28;20480;-66
2023/09/05 08:06:25;;;;;;;2.20;2.00;;;20.00;99.90;;;;;;5045583;28;20488;-66
2023/09/05 08:08:51;;;;;;;2.77;2.23;;;20.20;99.90;;;;;;5029829;28;20456;-66
2023/09/05 08:11:18;;;;;;;2.30;1.73;;;20.30;99.90;;;;;;5030133;28;20624;-66
2023/09/05 08:13:45;;;;;;;3.90;2.50;;;20.40;99.90;;;;;;5030283;28;20551;-66
2023/09/05 08:16:13;;;;;;;3.93;2.27;;;20.50;99.90;;;;;;5030291;28;20456;-66
2023/09/05 08:18:41;;;;;;;2.90;1.80;;;20.60;99.90;;;;;;5027027;28;20994;-66
2023/09/05 08:21:08;;;;;;;4.47;2.50;;;20.70;99.90;;;;;;5027524;28;20480;-66
2023/09/05 08:23:35;;;;;;;2.30;1.83;;;20.80;99.90;;;;;;5030280;28;20459;-66
2023/09/05 08:26:01;;;;;;;2.97;2.23;;;20.90;99.90;;;;;;5029529;28;21026;-66
2023/09/05 08:28:33;;;;;;;2.97;2.27;;;21.00;99.90;;;;;;5028143;28;20465;-66
2023/09/05 08:31:01;;;;;;;2.03;1.90;;;21.10;99.90;;;;;;5039375;28;21377;-66
2023/09/05 08:33:28;;;;;;;1.80;1.70;;;21.20;99.90;;;;;;5030218;28;20530;-66
2023/09/05 08:35:56;;;;;;;2.87;2.00;;;21.40;99.90;;;;;;5029669;28;20543;-66
2023/09/05 08:38:23;;;;;;;1.90;1.80;;;21.50;99.90;;;;;;5038500;28;20836;-66
2023/09/05 08:40:50;;;;;;;2.30;1.90;;;21.60;99.90;;;;;;5029445;28;20482;-66
2023/09/05 08:43:17;;;;;;;1.83;1.50;;;21.80;99.90;;;;;;5040722;28;20939;-67
2023/09/05 08:45:45;;;;;;;2.07;1.87;;;22.00;99.90;;;;;;5036767;28;20490;-67
2023/09/05 08:48:13;;;;;;;2.90;2.03;;;22.20;99.90;;;;;;5027423;28;20502;-66
2023/09/05 08:50:41;;;;;;;2.00;1.80;;;22.20;99.90;;;;;;5028284;28;20597;-67
2023/09/05 08:53:11;;;;;;;1.80;1.67;;;22.30;99.90;;;;;;5019593;28;20726;-67
2023/09/05 08:55:40;;;;;;;2.10;1.80;;;22.30;99.90;;;;;;5029327;28;20488;-67
2023/09/05 08:58:12;;;;;;;3.33;1.80;;;22.40;99.90;;;;;;5028856;28;20942;-66
2023/09/05 09:00:39;;;;;;;8.50;2.23;;;22.50;99.90;;;;;;5028442;28;21076;-66
2023/09/05 09:03:06;;;;;;;2.60;2.03;;;22.60;99.90;;;;;;5028613;28;20475;-67
2023/09/05 09:05:33;;;;;;;2.53;1.90;;;22.80;99.90;;;;;;5028663;28;20480;-67
2023/09/05 09:08:00;;;;;;;2.70;1.90;;;23.00;99.90;;;;;;5027976;28;20460;-66
2023/09/05 09:10:28;;;;;;;2.00;1.90;;;23.10;99.90;;;;;;5027179;28;20492;-66
2023/09/05 09:12:56;;;;;;;2.80;2.07;;;23.20;99.90;;;;;;5030639;28;20452;-66
2023/09/05 09:15:25;;;;;;;3.20;1.93;;;23.30;99.90;;;;;;5033547;28;20456;-66
2023/09/05 09:17:54;;;;;;;2.03;1.83;;;23.50;99.90;;;;;;5032592;28;20985;-67
2023/09/05 09:20:23;;;;;;;2.30;2.07;;;23.60;99.90;;;;;;5032078;28;20491;-67
2023/09/05 09:22:50;;;;;;;2.13;1.93;;;23.70;99.90;;;;;;5033276;28;20895;-67
2023/09/05 09:25:20;;;;;;;2.77;2.37;;;23.80;99.90;;;;;;5032612;28;20484;-67
2023/09/05 09:27:53;;;;;;;2.10;1.90;;;23.80;99.90;;;;;;5032687;28;20547;-66
2023/09/05 09:30:23;;;;;;;2.37;2.17;;;24.00;99.90;;;;;;5032484;28;20476;-67
2023/09/05 09:32:52;;;;;;;1.97;1.70;;;24.10;99.90;;;;;;5039384;28;20455;-66
2023/09/05 09:35:19;;;;;;;3.00;2.20;;;24.20;99.90;;;;;;5041017;28;20463;-66
2023/09/05 09:37:46;;;;;;;1.70;1.60;;;24.30;99.90;;;;;;5052513;28;20448;-66
2023/09/05 09:40:16;;;;;;;2.30;2.10;;;24.30;99.90;;;;;;5043829;28;20549;-67
2023/09/05 09:42:47;;;;;;;4.40;1.97;;;24.50;99.90;;;;;;5046979;28;20464;-67
2023/09/05 09:45:16;;;;;;;2.17;1.80;;;24.60;99.90;;;;;;5034289;28;20488;-67
2023/09/05 09:47:47;;;;;;;2.20;2.00;;;24.70;99.90;;;;;;5051444;28;20454;-67
2023/09/05 09:50:16;;;;;;;2.17;2.00;;;24.90;99.90;;;;;;5051789;28;20483;-66
2023/09/05 09:52:46;;;;;;;2.33;1.90;;;25.00;99.90;;;;;;5046120;28;21165;-66
2023/09/05 09:55:14;;;;;;;2.77;2.00;;;25.10;99.90;;;;;;5041997;28;20500;-66
2023/09/05 09:57:45;;;;;;;2.10;1.87;;;25.20;99.90;;;;;;5040096;28;20951;-66
2023/09/05 10:00:18;;;;;;;2.47;2.07;;;25.20;99.90;;;;;;5051903;28;20479;-66
2023/09/05 10:02:49;;;;;;;2.20;2.00;;;25.40;99.90;;;;;;5031397;28;20464;-66
2023/09/05 10:05:18;;;;;;;2.07;1.87;;;25.50;99.90;;;;;;5031810;28;20484;-66
2023/09/05 10:07:45;;;;;;;2.20;1.60;;;25.60;99.90;;;;;;5026350;28;20464;-66
2023/09/05 10:10:15;;;;;;;1.57;1.47;;;25.60;99.90;;;;;;5031195;28;20497;-66
2023/09/05 10:12:45;;;;;;;2.00;1.80;;;25.60;99.90;;;;;;5031815;28;20518;-68
2023/09/05 10:15:16;;;;;;;1.90;1.70;;;25.60;99.90;;;;;;5031032;28;20510;-66
2023/09/05 10:17:46;;;;;;;2.20;2.00;;;25.60;99.90;;;;;;5036820;28;20557;-66
2023/09/05 10:20:18;;;;;;;2.20;1.90;;;25.60;99.90;;;;;;5034797;28;20546;-66
2023/09/05 10:22:46;;;;;;;2.13;1.80;;;25.70;99.90;;;;;;5051745;28;20459;-66
2023/09/05 10:25:15;;;;;;;1.50;1.40;;;25.80;99.90;;;;;;5050466;28;20479;-66
2023/09/05 10:27:42;;;;;;;3.07;2.00;;;26.00;99.90;;;;;;5043368;28;20963;-66
2023/09/05 10:30:11;;;;;;;2.03;1.83;;;26.10;99.90;;;;;;5049795;28;20482;-66
2023/09/05 10:32:41;;;;;;;2.10;1.90;;;26.10;99.90;;;;;;5029218;28;20485;-66
2023/09/05 10:35:09;;;;;;;2.00;1.80;;;26.20;99.90;;;;;;5031775;28;20816;-66
2023/09/05 10:37:44;;;;;;;4.30;1.80;;;26.20;99.90;;;;;;5031885;28;20839;-66
2023/09/05 10:40:11;;;;;;;2.20;1.90;;;26.30;99.90;;;;;;5031559;28;20578;-66
2023/09/05 10:42:43;;;;;;;2.00;1.80;;;26.30;99.90;;;;;;5032148;28;20464;-67
2023/09/05 10:45:30;;;;;;;1.90;1.80;;;26.40;99.90;;;;;;5031191;28;20477;-67
2023/09/05 10:48:31;;;;;;;1.90;1.70;;;26.40;99.90;;;;;;5031134;28;20503;-67
2023/09/05 10:51:08;;;;;;;1.90;1.80;;;26.50;99.90;;;;;;5047214;28;20571;-67
2023/09/05 10:53:36;;;;;;;1.90;1.80;;;26.60;99.90;;;;;;5051491;28;20793;-68
2023/09/05 10:56:03;;;;;;;1.93;1.70;;;26.80;99.90;;;;;;5050941;28;20832;-66
2023/09/05 10:58:42;;;;;;;2.23;1.90;;;26.90;99.90;;;;;;5050854;28;20463;-66
2023/09/05 11:01:50;;;;;;;1.90;1.70;;;27.00;99.90;;;;;;5050940;28;20471;-66
2023/09/05 11:04:29;;;;;;;2.00;1.80;;;27.10;99.90;;;;;;5050609;28;21012;-66
2023/09/05 11:07:03;;;;;;;1.97;1.83;;;27.20;99.90;;;;;;5050329;28;20487;-66
2023/09/05 11:09:39;;;;;;;3.00;1.93;;;27.40;99.90;;;;;;5023658;28;20539;-66
2023/09/05 11:12:06;;;;;;;3.53;1.90;;;27.40;99.90;;;;;;5039310;28;20456;-66
2023/09/05 11:14:34;;;;;;;2.73;2.17;;;27.40;99.90;;;;;;5036301;28;20835;-66
2023/09/05 11:17:02;;;;;;;1.93;1.73;;;27.50;99.90;;;;;;5042220;28;20547;-66
2023/09/05 11:19:37;;;;;;;1.83;1.73;;;27.50;99.90;;;;;;5043215;28;20476;-66
2023/09/05 11:22:11;;;;;;;2.00;1.80;;;27.50;99.90;;;;;;5050679;28;20517;-66
2023/09/05 11:24:45;;;;;;;3.30;2.10;;;27.50;99.90;;;;;;5037795;28;20507;-66
2023/09/05 11:27:13;;;;;;;1.97;1.70;;;27.60;99.90;;;;;;5040912;28;20456;-66
2023/09/05 11:29:42;;;;;;;1.70;1.60;;;27.60;99.90;;;;;;5050977;28;20475;-66
2023/09/05 11:32:12;;;;;;;2.00;1.80;;;27.60;99.90;;;;;;5050700;28;20517;-66
2023/09/05 11:34:40;;;;;;;2.53;1.90;;;27.60;99.90;;;;;;5050595;28;20822;-67
2023/09/05 11:37:09;;;;;;;1.80;1.63;;;27.60;99.90;;;;;;5041846;28;20463;-66
2023/09/05 11:39:36;;;;;;;3.00;1.70;;;27.60;99.90;;;;;;5050894;28;20479;-66
2023/09/05 11:42:03;;;;;;;1.80;1.70;;;27.60;99.90;;;;;;5034480;28;20467;-66
2023/09/05 11:44:35;;;;;;;2.80;2.07;;;27.70;99.90;;;;;;5051299;28;20456;-66
2023/09/05 11:47:02;;;;;;;2.50;2.20;;;27.80;99.90;;;;;;5049533;28;21244;-66
2023/09/05 11:49:31;;;;;;;1.60;1.50;;;27.90;99.90;;;;;;5030835;28;20549;-66
2023/09/05 11:52:00;;;;;;;2.27;1.60;;;28.00;99.90;;;;;;5030867;28;20515;-66
2023/09/05 11:54:29;;;;;;;1.80;1.70;;;28.10;99.90;;;;;;5038810;28;21190;-66
2023/09/05 11:56:56;;;;;;;1.60;1.50;;;28.30;99.90;;;;;;5045803;28;20466;-66
2023/09/05 11:59:24;;;;;;;2.00;1.80;;;28.30;99.90;;;;;;5050021;28;20566;-66
2023/09/05 12:01:52;;;;;;;1.83;1.73;;;28.40;99.90;;;;;;5033472;28;20456;-66
2023/09/05 12:04:19;;;;;;;2.37;2.17;;;28.30;99.90;;;;;;5025440;28;20486;-66
2023/09/05 12:06:50;;;;;;;2.07;1.87;;;28.40;99.90;;;;;;5018347;28;20488;-66
2023/09/05 12:09:17;;;;;;;2.10;1.90;;;28.50;99.90;;;;;;5010205;28;20481;-66
2023/09/05 12:11:45;;;;;;;1.93;1.73;;;28.60;99.90;;;;;;5011606;28;20464;-66
2023/09/05 12:14:12;;;;;;;1.97;1.77;;;28.70;99.90;;;;;;5010557;28;20497;-66
2023/09/05 12:16:38;;;;;;;2.80;1.57;;;28.80;99.90;;;;;;5011757;28;20449;-66
2023/09/05 12:19:06;;;;;;;1.80;1.70;;;28.80;99.90;;;;;;5010136;28;22150;-67
2023/09/05 12:21:43;;;;;;;2.13;1.70;;;28.90;99.90;;;;;;5011620;28;20956;-66
2023/09/05 12:24:23;;;;;;;1.87;1.73;;;28.90;99.90;;;;;;5010149;28;20460;-67
2023/09/05 12:26:53;;;;;;;1.87;1.67;;;28.80;99.90;;;;;;5017394;28;20992;-66
2023/09/05 12:29:22;;;;;;;1.57;1.47;;;28.80;99.90;;;;;;5038236;28;20484;-66
2023/09/05 12:31:50;;;;;;;2.33;1.80;;;28.90;99.90;;;;;;5023467;28;20563;-66
2023/09/05 12:34:18;;;;;;;1.90;1.80;;;29.00;99.90;;;;;;5009924;28;20547;-66
2023/09/05 12:36:45;;;;;;;3.57;2.30;;;29.10;99.90;;;;;;5021857;28;20455;-66
2023/09/05 12:39:12;;;;;;;1.50;1.40;;;29.20;99.90;;;;;;5041432;28;20471;-66
2023/09/05 12:41:39;;;;;;;2.13;1.73;;;29.20;99.90;;;;;;5108571;22;20495;-68
2023/09/05 12:44:08;;;;;;;1.40;1.30;;;29.40;99.90;;;;;;5030476;28;20489;-66
2023/09/05 12:46:35;;;;;;;2.33;1.83;;;29.30;99.90;;;;;;5031159;28;20484;-66
2023/09/05 12:49:02;;;;;;;1.73;1.47;;;29.30;99.90;;;;;;5036274;28;20461;-68
2023/09/05 12:51:30;;;;;;;2.10;1.90;;;29.40;99.90;;;;;;5028512;28;20460;-68
2023/09/05 12:53:57;;;;;;;1.67;1.57;;;29.40;99.90;;;;;;5036646;28;20459;-68